Time;durP1;ratioP1;P1;durP2;ratioP2;P2;SDS_P1;SDS_P2;PMS_P1;PMS_P2;Temp;Humidity;BMP_temperature;BMP_pressure;BME280_temperature;BME280_humidity;BME280_pressure;Samples;Min_cycle;Max_cycle;Signal;HPM_P1;HPM_P2
2024/02/14 00:00:32;;;;;;;0.20;0.20;;;;;;;9.68;55.47;101078.41;4956177;28;20035;-89
2024/02/14 00:03:00;;;;;;;0.20;0.20;;;;;;;9.67;56.60;101081.91;4955908;28;20070;-90
2024/02/14 00:05:26;;;;;;;0.20;0.20;;;;;;;9.64;55.24;101081.19;4955984;28;20073;-89
2024/02/14 00:07:52;;;;;;;0.20;0.20;;;;;;;9.59;55.79;101050.34;4988399;28;20408;-89
2024/02/14 00:10:17;;;;;;;0.20;0.20;;;;;;;9.81;55.63;101104.63;4971860;28;20038;-88
2024/02/14 00:12:43;;;;;;;0.20;0.20;;;;;;;9.86;55.59;101105.28;4972170;28;20041;-89
2024/02/14 00:15:09;;;;;;;0.20;0.20;;;;;;;9.79;55.41;101114.19;4955836;28;20062;-88
2024/02/14 00:17:34;;;;;;;0.20;0.20;;;;;;;9.75;55.62;101110.03;4972129;28;20450;-89
2024/02/14 00:20:01;;;;;;;0.20;0.20;;;;;;;9.73;55.60;101117.84;4939983;28;20557;-89
2024/02/14 00:22:26;;;;;;;0.20;0.20;;;;;;;9.69;55.83;101120.59;4955791;28;20057;-90
2024/02/14 00:24:52;;;;;;;0.20;0.20;;;;;;;9.60;55.78;101118.34;4971224;28;20074;-89
2024/02/14 00:27:18;;;;;;;0.20;0.20;;;;;;;9.73;55.25;101125.59;4955625;28;20034;-88
2024/02/14 00:29:45;;;;;;;0.20;0.20;;;;;;;9.53;55.45;101101.38;4972169;28;20034;-89
2024/02/14 00:32:12;;;;;;;0.20;0.20;;;;;;;9.69;55.11;101128.34;4955989;28;20113;-88
2024/02/14 00:34:37;;;;;;;0.20;0.20;;;;;;;9.60;55.20;101126.09;4955609;28;20501;-87
2024/02/14 00:37:03;;;;;;;0.20;0.20;;;;;;;9.59;55.10;101134.75;4955427;28;20034;-88
2024/02/14 00:39:29;;;;;;;0.20;0.20;;;;;;;9.68;54.23;101134.41;4955206;28;20039;-89
2024/02/14 00:41:55;;;;;;;0.20;0.20;;;;;;;9.68;54.80;101130.06;4955339;28;20121;-88
2024/02/14 00:44:22;;;;;;;0.20;0.20;;;;;;;9.63;54.42;101134.56;4955530;28;20051;-88
2024/02/14 00:46:48;;;;;;;0.20;0.20;;;;;;;9.71;54.31;101137.72;4939494;28;20086;-88
2024/02/14 00:49:14;;;;;;;0.20;0.20;;;;;;;9.52;55.00;101103.13;4955259;28;20035;-88
2024/02/14 00:51:40;;;;;;;0.20;0.20;;;;;;;9.62;55.44;101140.63;4987445;28;20054;-87
2024/02/14 00:54:06;;;;;;;0.20;0.20;;;;;;;9.60;55.11;101144.16;4971032;28;20112;-89
2024/02/14 00:56:31;;;;;;;0.20;0.20;;;;;;;9.53;54.78;101140.97;4955309;28;20496;-89
2024/02/14 00:58:57;;;;;;;0.20;0.20;;;;;;;9.60;55.26;101147.59;4972339;28;20031;-91
2024/02/14 01:01:23;;;;;;;0.20;0.20;;;;;;;9.60;55.22;101147.59;4971188;28;20069;-88
2024/02/14 01:03:48;;;;;;;0.20;0.20;;;;;;;9.51;54.53;101147.94;4987167;28;20481;-88
2024/02/14 01:06:15;;;;;;;0.20;0.20;;;;;;;9.44;54.85;101126.66;4971194;28;20041;-88
2024/02/14 01:08:41;;;;;;;0.20;0.20;;;;;;;9.50;55.46;101138.50;4954696;28;20038;-88
2024/02/14 01:11:07;;;;;;;0.20;0.20;;;;;;;9.44;55.91;101136.16;4938449;28;20026;-89
2024/02/14 01:13:33;;;;;;;0.20;0.20;;;;;;;9.54;55.47;101152.13;4955092;28;21454;-89
2024/02/14 01:15:59;;;;;;;0.10;0.10;;;;;;;9.58;55.30;101153.72;4954871;28;20550;-88
2024/02/14 01:18:24;;;;;;;0.20;0.20;;;;;;;9.51;54.99;101154.84;4954869;28;20054;-88
2024/02/14 01:20:50;;;;;;;0.20;0.20;;;;;;;9.42;55.66;101151.69;4938832;28;20054;-86
2024/02/14 01:23:16;;;;;;;0.20;0.20;;;;;;;9.37;54.77;101156.19;4970741;28;20090;-89
2024/02/14 01:25:42;;;;;;;0.20;0.20;;;;;;;9.35;55.02;101150.25;4986751;28;20042;-88
2024/02/14 01:28:08;;;;;;;0.20;0.20;;;;;;;9.45;54.88;101149.00;4971256;28;20034;-89
2024/02/14 01:30:35;;;;;;;0.20;0.20;;;;;;;9.43;55.87;101160.28;4970929;28;20118;-88
2024/02/14 01:33:04;;;;;;;0.20;0.20;;;;;;;9.35;55.37;101162.31;4970901;28;20516;-89
2024/02/14 01:35:30;;;;;;;0.20;0.20;;;;;;;9.36;56.50;101151.91;4970797;28;20031;-88
2024/02/14 01:37:55;;;;;;;0.20;0.20;;;;;;;9.41;56.27;101162.06;4954688;28;20108;-88
2024/02/14 01:40:21;;;;;;;0.20;0.20;;;;;;;9.40;55.53;101161.22;4938648;28;20483;-89
2024/02/14 01:42:47;;;;;;;0.20;0.20;;;;;;;9.37;55.76;101166.50;4970663;28;20460;-89
2024/02/14 01:45:13;;;;;;;0.20;0.20;;;;;;;9.34;55.89;101166.63;4970396;28;20047;-88
2024/02/14 01:47:41;;;;;;;0.13;0.13;;;;;;;9.34;56.78;101160.59;4938591;28;20034;-88
2024/02/14 01:50:10;;;;;;;0.20;0.20;;;;;;;9.26;55.53;101153.13;4954782;28;20030;-88
2024/02/14 01:52:36;;;;;;;0.20;0.20;;;;;;;9.35;56.28;101160.56;4954633;28;20035;-88
2024/02/14 01:55:03;;;;;;;0.20;0.20;;;;;;;9.19;56.37;101138.75;4970885;28;20114;-89
2024/02/14 01:57:29;;;;;;;0.20;0.20;;;;;;;9.24;56.54;101139.41;4954923;28;20062;-89
2024/02/14 01:59:55;;;;;;;0.20;0.20;;;;;;;9.49;55.79;101178.97;4954565;28;20031;-89
2024/02/14 02:02:20;;;;;;;0.20;0.20;;;;;;;9.47;54.75;101178.19;4954676;28;20039;-88
2024/02/14 02:04:46;;;;;;;0.20;0.20;;;;;;;9.39;55.84;101180.22;4970530;28;20042;-88
2024/02/14 02:07:12;;;;;;;0.20;0.20;;;;;;;9.31;55.19;101161.56;4970464;28;20031;-87
2024/02/14 02:09:37;;;;;;;0.20;0.20;;;;;;;9.34;54.86;101158.88;4954392;28;20053;-89
2024/02/14 02:12:08;;;;;;;0.20;0.20;;;;;;;9.29;54.21;101173.69;4954569;28;20027;-89
2024/02/14 02:14:33;;;;;;;0.20;0.20;;;;;;;9.39;53.88;101175.03;4970692;28;20027;-87
2024/02/14 02:16:59;;;;;;;0.20;0.20;;;;;;;9.39;54.15;101180.22;4954149;28;20027;-88
2024/02/14 02:19:24;;;;;;;0.20;0.20;;;;;;;9.35;53.57;101186.38;4954144;28;20034;-87
2024/02/14 02:21:50;;;;;;;0.20;0.20;;;;;;;9.45;52.84;101203.25;4969464;28;20027;-88
2024/02/14 02:24:15;;;;;;;0.20;0.20;;;;;;;9.33;53.74;101159.75;4957047;28;20023;-88
2024/02/14 02:26:41;;;;;;;0.20;0.20;;;;;;;9.56;53.43;101208.03;4974060;28;20031;-89
2024/02/14 02:29:07;;;;;;;0.20;0.20;;;;;;;9.68;54.42;101202.41;4973908;28;20042;-88
2024/02/14 02:31:32;;;;;;;0.20;0.20;;;;;;;9.67;52.83;101205.06;4957728;28;20113;-88
2024/02/14 02:33:58;;;;;;;0.20;0.20;;;;;;;9.54;53.53;101188.28;4957739;28;20054;-89
2024/02/14 02:36:24;;;;;;;0.20;0.20;;;;;;;9.74;52.05;101214.28;4973203;28;20413;-89
2024/02/14 02:38:50;;;;;;;0.20;0.20;;;;;;;9.73;53.88;101212.56;4973820;28;20046;-89
2024/02/14 02:41:16;;;;;;;0.20;0.20;;;;;;;9.58;52.23;101206.22;4973388;28;20086;-88
2024/02/14 02:43:42;;;;;;;0.20;0.20;;;;;;;9.65;52.24;101227.53;4973650;28;20058;-89
2024/02/14 02:46:09;;;;;;;0.20;0.20;;;;;;;9.64;52.79;101237.03;4973506;28;20042;-90
2024/02/14 02:48:35;;;;;;;0.20;0.20;;;;;;;9.51;53.10;101224.56;4941736;28;20026;-88
2024/02/14 02:51:01;;;;;;;0.20;0.20;;;;;;;9.38;53.03;101214.69;4957378;28;20038;-89
2024/02/14 02:53:27;;;;;;;0.20;0.20;;;;;;;9.56;52.85;101243.34;4973344;28;20046;-88
2024/02/14 02:55:54;;;;;;;0.20;0.20;;;;;;;9.46;53.38;101217.00;4973777;28;20038;-89
2024/02/14 02:58:21;;;;;;;0.20;0.20;;;;;;;9.58;52.82;101241.56;4957911;28;20030;-88
2024/02/14 03:00:49;;;;;;;0.20;0.20;;;;;;;9.68;52.10;101242.91;4957419;28;20448;-88
2024/02/14 03:03:15;;;;;;;0.20;0.20;;;;;;;9.63;53.35;101249.97;4973329;28;20081;-88
2024/02/14 03:05:44;;;;;;;0.10;0.10;;;;;;;9.49;52.35;101253.88;4957098;28;20034;-88
2024/02/14 03:08:15;;;;;;;0.20;0.20;;;;;;;9.36;52.97;101250.03;4957583;28;20113;-88
2024/02/14 03:10:41;;;;;;;0.20;0.20;;;;;;;9.38;52.37;101258.56;4973084;28;20509;-88
2024/02/14 03:13:11;;;;;;;0.20;0.20;;;;;;;9.36;53.67;101257.78;4956955;28;20046;-88
2024/02/14 03:15:37;;;;;;;0.20;0.20;;;;;;;9.27;53.70;101252.94;4942369;28;20027;-89
2024/02/14 03:18:07;;;;;;;0.20;0.20;;;;;;;9.17;53.76;101264.47;4940750;28;20058;-89
2024/02/14 03:20:33;;;;;;;0.20;0.20;;;;;;;9.10;53.82;101268.13;4973107;28;20386;-88
2024/02/14 03:22:59;;;;;;;0.20;0.20;;;;;;;9.08;53.94;101268.19;4989140;28;20130;-89
2024/02/14 03:25:25;;;;;;;0.20;0.20;;;;;;;8.93;53.83;101268.66;4988749;28;20117;-89
2024/02/14 03:27:52;;;;;;;0.20;0.20;;;;;;;8.89;53.49;101267.94;4973090;28;20030;-88
2024/02/14 03:30:22;;;;;;;0.20;0.20;;;;;;;8.90;54.50;101277.34;4956860;28;20030;-87
2024/02/14 03:32:47;;;;;;;0.20;0.20;;;;;;;8.89;54.80;101278.25;4956890;28;20525;-87
2024/02/14 03:35:13;;;;;;;0.20;0.20;;;;;;;8.91;53.91;101291.94;4971948;28;20113;-88
2024/02/14 03:37:42;;;;;;;0.20;0.20;;;;;;;8.88;53.91;101286.03;4972703;28;20142;-87
2024/02/14 03:40:08;;;;;;;0.20;0.20;;;;;;;8.91;54.16;101291.09;4956570;28;20151;-88
2024/02/14 03:42:39;;;;;;;0.20;0.20;;;;;;;8.93;53.92;101293.63;4956583;28;20508;-88
2024/02/14 03:45:06;;;;;;;0.10;0.10;;;;;;;8.77;54.66;101280.38;4956384;28;20047;-88
2024/02/14 03:47:32;;;;;;;0.13;0.13;;;;;;;8.81;55.30;101305.19;4956241;28;20023;-88
2024/02/14 03:49:58;;;;;;;0.17;0.17;;;;;;;8.70;54.33;101305.50;4972550;28;20413;-88
2024/02/14 03:52:24;;;;;;;0.20;0.20;;;;;;;8.71;54.51;101304.63;4972584;28;20030;-88
2024/02/14 03:54:50;;;;;;;0.20;0.20;;;;;;;8.63;54.88;101322.88;4972517;28;20035;-88
2024/02/14 03:57:17;;;;;;;0.20;0.20;;;;;;;8.59;55.09;101325.63;4956737;28;20027;-91
2024/02/14 03:59:46;;;;;;;0.20;0.20;;;;;;;8.63;56.65;101317.72;4956710;28;20412;-88
2024/02/14 04:02:11;;;;;;;0.20;0.20;;;;;;;8.56;54.89;101323.13;4972631;28;20113;-90
2024/02/14 04:04:38;;;;;;;0.20;0.20;;;;;;;8.53;56.34;101312.88;4956562;28;20165;-91
2024/02/14 04:07:04;;;;;;;0.20;0.20;;;;;;;8.69;56.19;101336.50;4973037;28;20035;-90
2024/02/14 04:09:29;;;;;;;0.20;0.20;;;;;;;8.50;55.16;101321.56;4956727;28;20033;-92
2024/02/14 04:11:55;;;;;;;0.20;0.20;;;;;;;8.54;55.11;101332.63;4956592;28;20069;-91
2024/02/14 04:14:21;;;;;;;0.20;0.20;;;;;;;8.56;53.89;101331.72;4972648;28;20035;-90
2024/02/14 04:16:46;;;;;;;0.20;0.20;;;;;;;8.49;55.89;101324.19;4972556;28;20089;-90
2024/02/14 04:19:12;;;;;;;0.20;0.20;;;;;;;8.55;55.25;101329.16;4956252;28;20414;-92
2024/02/14 04:21:38;;;;;;;0.20;0.20;;;;;;;8.57;54.60;101327.41;4972544;28;20090;-89
2024/02/14 04:24:04;;;;;;;0.20;0.20;;;;;;;8.45;55.51;101320.00;4972471;28;20030;-89
2024/02/14 04:26:29;;;;;;;0.20;0.20;;;;;;;8.53;54.48;101328.38;4956180;28;20026;-90
2024/02/14 04:28:55;;;;;;;0.20;0.20;;;;;;;8.42;53.47;101328.69;4971943;28;20093;-89
2024/02/14 04:31:21;;;;;;;0.20;0.20;;;;;;;8.48;55.19;101323.34;4972900;28;20035;-90
2024/02/14 04:33:51;;;;;;;0.20;0.20;;;;;;;8.47;54.80;101338.88;4969562;28;20031;-88
2024/02/14 04:36:19;;;;;;;0.20;0.20;;;;;;;8.32;54.17;101325.50;4966750;28;20027;-86
2024/02/14 04:38:44;;;;;;;0.20;0.20;;;;;;;8.12;53.62;101299.44;4983669;28;20469;-84
2024/02/14 04:41:10;;;;;;;0.20;0.20;;;;;;;8.39;53.32;101335.66;4967952;28;20485;-88
2024/02/14 04:43:36;;;;;;;0.20;0.20;;;;;;;8.34;53.97;101331.47;4967707;28;20109;-87
2024/02/14 04:46:01;;;;;;;0.20;0.20;;;;;;;8.32;54.45;101322.06;4982802;28;20114;-84
2024/02/14 04:48:27;;;;;;;0.20;0.20;;;;;;;8.35;53.20;101332.31;4967687;28;20035;-85
2024/02/14 04:50:53;;;;;;;0.20;0.20;;;;;;;8.33;53.65;101326.31;4983913;28;20440;-86
2024/02/14 04:53:19;;;;;;;0.20;0.20;;;;;;;8.39;54.09;101344.25;4983902;28;20027;-85
2024/02/14 04:55:45;;;;;;;0.20;0.20;;;;;;;8.32;54.47;101332.38;4951585;29;20031;-85
2024/02/14 04:58:11;;;;;;;0.20;0.20;;;;;;;8.31;54.18;101334.13;4967085;28;20038;-84
2024/02/14 05:00:36;;;;;;;0.20;0.20;;;;;;;8.38;54.10;101345.13;4983230;28;20031;-83
2024/02/14 05:03:02;;;;;;;0.20;0.20;;;;;;;8.17;54.19;101351.72;4967665;28;20027;-90
2024/02/14 05:05:27;;;;;;;0.20;0.20;;;;;;;8.32;53.82;101353.84;4967506;28;20114;-84
2024/02/14 05:07:53;;;;;;;0.20;0.20;;;;;;;8.23;53.97;101363.56;4983689;28;20094;-92
2024/02/14 05:10:19;;;;;;;0.20;0.20;;;;;;;8.24;54.28;101367.81;4974463;28;20023;-93
2024/02/14 05:12:44;;;;;;;0.20;0.20;;;;;;;8.13;53.44;101381.00;4953294;29;20091;-92
2024/02/14 05:15:12;;;;;;;0.20;0.20;;;;;;;8.26;53.86;101374.66;4964062;28;20035;-88
2024/02/14 05:17:37;;;;;;;0.20;0.20;;;;;;;8.24;53.69;101381.56;4986906;28;20078;-88
2024/02/14 05:20:08;;;;;;;0.20;0.20;;;;;;;8.13;54.08;101385.31;4955536;28;20034;-87
2024/02/14 05:22:36;;;;;;;0.20;0.20;;;;;;;8.13;54.26;101388.75;4986545;28;20018;-89
2024/02/14 05:25:02;;;;;;;0.20;0.20;;;;;;;8.20;54.35;101399.75;4955768;28;20062;-85
2024/02/14 05:27:28;;;;;;;0.20;0.20;;;;;;;8.10;54.73;101372.53;4971883;28;20501;-85
2024/02/14 05:29:53;;;;;;;0.20;0.20;;;;;;;8.10;55.07;101403.44;4982164;28;20054;-93
2024/02/14 05:32:19;;;;;;;0.20;0.20;;;;;;;8.08;54.92;101394.91;4970385;28;20031;-82
2024/02/14 05:34:44;;;;;;;0.20;0.20;;;;;;;8.15;54.65;101407.59;4973706;28;20416;-92
2024/02/14 05:37:10;;;;;;;0.20;0.20;;;;;;;8.01;53.88;101394.22;4987934;28;20480;-90
2024/02/14 05:39:35;;;;;;;0.20;0.20;;;;;;;8.27;53.66;101421.91;4976301;28;20481;-91
2024/02/14 05:42:02;;;;;;;0.20;0.20;;;;;;;8.20;54.44;101435.84;4955695;28;20505;-92
2024/02/14 05:44:30;;;;;;;0.20;0.20;;;;;;;8.16;54.82;101435.06;4956749;28;20571;-90
2024/02/14 05:46:55;;;;;;;0.20;0.20;;;;;;;8.21;54.13;101433.22;4972497;28;20382;-92
2024/02/14 05:49:22;;;;;;;0.20;0.20;;;;;;;8.33;54.66;101440.59;4981039;28;20042;-91
2024/02/14 05:51:47;;;;;;;0.20;0.20;;;;;;;8.37;53.90;101444.00;4964319;28;20054;-91
2024/02/14 05:54:13;;;;;;;0.20;0.20;;;;;;;8.39;53.67;101446.53;4955005;28;20077;-88
2024/02/14 05:56:39;;;;;;;0.20;0.20;;;;;;;8.41;53.83;101444.75;4970905;28;20142;-88
2024/02/14 05:59:05;;;;;;;0.20;0.20;;;;;;;8.27;54.33;101448.53;4956752;28;20037;-92
2024/02/14 06:01:30;;;;;;;0.10;0.10;;;;;;;8.17;54.99;101421.31;4974465;28;20046;-90
2024/02/14 06:03:56;;;;;;;0.20;0.20;;;;;;;8.29;54.53;101446.75;4974458;28;20026;-91
2024/02/14 06:06:23;;;;;;;0.20;0.20;;;;;;;8.05;54.88;101424.16;4986156;28;20039;-87
2024/02/14 06:08:48;;;;;;;0.20;0.20;;;;;;;8.12;54.78;101443.75;4957295;28;20034;-90
2024/02/14 06:11:15;;;;;;;0.20;0.20;;;;;;;8.04;55.34;101458.56;4974581;28;20133;-88
2024/02/14 06:13:41;;;;;;;0.20;0.20;;;;;;;7.98;55.73;101464.72;4965821;28;20035;-89
2024/02/14 06:16:08;;;;;;;0.20;0.20;;;;;;;7.96;54.58;101460.47;4990030;28;20965;-92
2024/02/14 06:18:34;;;;;;;0.17;0.17;;;;;;;7.99;54.85;101468.16;4974870;28;20026;-87
2024/02/14 06:21:00;;;;;;;0.20;0.20;;;;;;;7.83;54.73;101465.09;4980146;28;20027;-91
2024/02/14 06:23:25;;;;;;;0.20;0.20;;;;;;;7.91;54.80;101475.22;4989303;28;20038;-90
2024/02/14 06:25:51;;;;;;;0.20;0.20;;;;;;;7.83;55.60;101477.13;4988963;28;20026;-88
2024/02/14 06:28:17;;;;;;;0.20;0.20;;;;;;;7.75;54.99;101467.84;4974196;28;20087;-88
2024/02/14 06:30:42;;;;;;;0.20;0.20;;;;;;;7.97;55.28;101482.81;4974202;28;20022;-92
2024/02/14 06:33:08;;;;;;;0.20;0.20;;;;;;;7.83;54.40;101456.53;4965565;28;20062;-85
2024/02/14 06:35:33;;;;;;;0.20;0.20;;;;;;;7.98;54.64;101502.53;4982085;28;20030;-92
2024/02/14 06:37:59;;;;;;;0.20;0.20;;;;;;;8.00;55.04;101508.50;4956551;28;20069;-84
2024/02/14 06:40:26;;;;;;;0.20;0.20;;;;;;;8.09;54.38;101513.44;4962264;28;20042;-81
2024/02/14 06:42:54;;;;;;;0.20;0.20;;;;;;;8.18;55.65;101515.78;4957372;28;20784;-91
2024/02/14 06:45:20;;;;;;;0.20;0.20;;;;;;;8.06;54.73;101513.47;4983396;28;20043;-88
2024/02/14 06:47:45;;;;;;;0.20;0.20;;;;;;;8.08;54.82;101509.16;4952802;28;20085;-92
2024/02/14 06:50:11;;;;;;;0.20;0.20;;;;;;;8.03;55.15;101516.13;4966206;28;20027;-92
2024/02/14 06:52:36;;;;;;;0.20;0.20;;;;;;;7.80;54.55;101483.22;4985843;28;20034;-88
2024/02/14 06:55:03;;;;;;;0.20;0.20;;;;;;;8.02;54.90;101520.44;4972839;28;20042;-92
2024/02/14 06:57:29;;;;;;;0.20;0.20;;;;;;;7.85;54.65;101521.72;4955384;28;20137;-90
2024/02/14 06:59:55;;;;;;;0.20;0.20;;;;;;;7.92;54.62;101528.44;4959856;28;20034;-90
2024/02/14 07:02:21;;;;;;;0.20;0.20;;;;;;;7.92;55.31;101515.56;4989492;28;20034;-83
2024/02/14 07:04:47;;;;;;;0.20;0.20;;;;;;;7.92;55.10;101518.13;4957586;28;20034;-88
2024/02/14 07:07:13;;;;;;;0.20;0.20;;;;;;;7.94;54.81;101531.81;4965681;28;20057;-91
2024/02/14 07:09:39;;;;;;;0.20;0.20;;;;;;;7.87;54.84;101523.41;4988041;28;20102;-87
2024/02/14 07:12:05;;;;;;;0.20;0.20;;;;;;;7.83;55.04;101513.19;4956123;28;20133;-88
2024/02/14 07:14:31;;;;;;;0.20;0.20;;;;;;;7.91;55.57;101526.75;4974955;28;20022;-90
2024/02/14 07:16:56;;;;;;;0.20;0.20;;;;;;;7.91;55.01;101527.59;4955969;28;20049;-87
2024/02/14 07:19:22;;;;;;;0.20;0.20;;;;;;;7.92;54.93;101528.44;4986984;28;20496;-86
2024/02/14 07:21:47;;;;;;;0.20;0.20;;;;;;;7.92;54.56;101536.16;4970703;28;20104;-92
2024/02/14 07:24:14;;;;;;;0.20;0.20;;;;;;;7.94;54.88;101509.47;4971526;28;20040;-90
2024/02/14 07:26:41;;;;;;;0.20;0.20;;;;;;;8.01;55.52;101523.06;4969090;28;20098;-90
2024/02/14 07:29:06;;;;;;;0.20;0.20;;;;;;;7.96;54.17;101532.63;4967497;28;20432;-89
2024/02/14 07:31:34;;;;;;;0.20;0.20;;;;;;;8.22;53.98;101548.31;4984431;28;20043;-84
2024/02/14 07:34:00;;;;;;;0.20;0.20;;;;;;;8.28;53.72;101558.50;4972408;28;20093;-85
2024/02/14 07:36:25;;;;;;;0.20;0.20;;;;;;;8.20;53.26;101551.81;4952661;28;20122;-86
2024/02/14 07:38:51;;;;;;;0.20;0.20;;;;;;;8.30;54.54;101542.97;4972725;28;20561;-83
2024/02/14 07:41:16;;;;;;;0.20;0.20;;;;;;;8.43;53.40;101566.75;4965909;28;20145;-88
2024/02/14 07:43:43;;;;;;;0.20;0.20;;;;;;;8.18;53.58;101541.56;4956110;28;20046;-89
2024/02/14 07:46:08;;;;;;;0.10;0.10;;;;;;;8.27;53.98;101567.09;4971580;28;20031;-86
2024/02/14 07:48:34;;;;;;;0.20;0.20;;;;;;;8.36;53.22;101565.19;4987377;28;20027;-94
2024/02/14 07:51:00;;;;;;;0.20;0.20;;;;;;;8.47;53.64;101552.91;4973796;28;20086;-90
2024/02/14 07:53:26;;;;;;;0.20;0.20;;;;;;;8.52;53.49;101571.69;4957160;28;20049;-89
2024/02/14 07:55:55;;;;;;;0.20;0.20;;;;;;;8.46;53.35;101561.53;4983166;28;20031;-93
2024/02/14 07:58:20;;;;;;;0.20;0.20;;;;;;;8.52;53.08;101563.94;4989931;28;20041;-94
2024/02/14 08:00:46;;;;;;;0.20;0.20;;;;;;;8.27;53.43;101530.19;4956896;28;20030;-91
2024/02/14 08:03:13;;;;;;;0.20;0.20;;;;;;;8.53;53.98;101563.91;4975602;28;20030;-92
2024/02/14 08:05:41;;;;;;;0.20;0.20;;;;;;;8.49;53.53;101556.28;4972652;28;20030;-88
2024/02/14 08:08:06;;;;;;;0.20;0.20;;;;;;;8.62;53.39;101570.56;4983312;28;20019;-85
2024/02/14 08:10:32;;;;;;;0.20;0.20;;;;;;;8.53;53.97;101547.56;4971503;28;20536;-91
2024/02/14 08:12:58;;;;;;;0.20;0.20;;;;;;;8.72;53.11;101569.44;4988750;28;20536;-91
2024/02/14 08:15:24;;;;;;;0.20;0.20;;;;;;;8.79;52.70;101572.72;4963968;28;20085;-94
2024/02/14 08:17:50;;;;;;;0.20;0.20;;;;;;;8.95;52.38;101574.00;4979152;28;20034;-92
2024/02/14 08:20:17;;;;;;;0.20;0.20;;;;;;;9.07;53.35;101575.41;4960030;28;20035;-93
2024/02/14 08:22:43;;;;;;;0.20;0.20;;;;;;;9.07;52.40;101573.66;4968440;28;20031;-90
2024/02/14 08:25:09;;;;;;;0.20;0.20;;;;;;;9.30;51.06;101575.59;4994318;28;20035;-88
2024/02/14 08:27:35;;;;;;;0.20;0.20;;;;;;;9.33;50.29;101561.72;4972018;28;20066;-85
2024/02/14 08:30:00;;;;;;;0.20;0.20;;;;;;;9.37;50.75;101569.38;4989238;28;20117;-90
2024/02/14 08:32:26;;;;;;;0.20;0.20;;;;;;;9.36;50.87;101570.25;4984989;28;20066;-88
2024/02/14 08:34:51;;;;;;;0.20;0.20;;;;;;;9.39;50.41;101562.41;4973702;28;20046;-91
2024/02/14 08:37:17;;;;;;;0.20;0.20;;;;;;;9.53;50.55;101568.91;4961306;28;20031;-90
2024/02/14 08:39:42;;;;;;;0.20;0.20;;;;;;;9.39;49.33;101552.09;4984242;28;20058;-88
2024/02/14 08:42:09;;;;;;;0.20;0.20;;;;;;;9.76;49.63;101582.84;4985980;28;20457;-91
2024/02/14 08:44:35;;;;;;;0.20;0.20;;;;;;;9.79;49.78;101574.13;4970655;28;20535;-90
2024/02/14 08:47:00;;;;;;;0.10;0.10;;;;;;;9.67;50.43;101553.84;4953821;28;20279;-83
2024/02/14 08:49:26;;;;;;;0.20;0.20;;;;;;;9.60;49.66;101542.00;4960503;28;20095;-89
2024/02/14 08:51:52;;;;;;;0.20;0.20;;;;;;;9.85;49.39;101570.53;4962897;28;20046;-88
2024/02/14 08:54:17;;;;;;;0.20;0.20;;;;;;;9.96;48.58;101579.66;4952968;28;20058;-89
2024/02/14 08:56:43;;;;;;;0.20;0.20;;;;;;;9.95;49.78;101562.44;4969785;28;20440;-81
2024/02/14 08:59:08;;;;;;;0.20;0.20;;;;;;;10.14;49.99;101582.56;4969482;28;20074;-81
2024/02/14 09:01:35;;;;;;;0.20;0.20;;;;;;;10.27;49.13;101573.53;4953657;28;20027;-85
2024/02/14 09:04:01;;;;;;;0.20;0.20;;;;;;;10.26;49.05;101577.84;4969835;28;20071;-88
2024/02/14 09:06:27;;;;;;;0.20;0.20;;;;;;;10.35;48.56;101579.31;4970894;28;20538;-85
2024/02/14 09:08:53;;;;;;;0.20;0.20;;;;;;;10.42;47.38;101575.63;4956822;28;20815;-90
2024/02/14 09:11:19;;;;;;;0.20;0.20;;;;;;;10.35;47.88;101584.47;4950640;29;20082;-88
2024/02/14 09:13:47;;;;;;;0.20;0.20;;;;;;;10.37;46.35;101585.25;4953063;28;20129;-87
2024/02/14 09:16:13;;;;;;;0.20;0.20;;;;;;;10.45;45.84;101601.38;4938544;28;20046;-83
2024/02/14 09:18:39;;;;;;;0.20;0.20;;;;;;;10.46;46.79;101590.13;4963773;28;20039;-90
2024/02/14 09:21:05;;;;;;;0.20;0.20;;;;;;;10.41;45.27;101592.00;4957998;28;20042;-90
2024/02/14 09:23:31;;;;;;;0.20;0.20;;;;;;;10.54;45.79;101582.13;4987608;28;20022;-89
2024/02/14 09:25:57;;;;;;;0.20;0.20;;;;;;;10.72;45.65;101598.78;4970988;28;20045;-90
2024/02/14 09:28:23;;;;;;;0.20;0.20;;;;;;;10.84;45.26;101601.78;4954699;28;20023;-92
2024/02/14 09:30:49;;;;;;;0.20;0.20;;;;;;;10.73;44.31;101557.31;4967920;28;20509;-90
2024/02/14 09:33:15;;;;;;;0.20;0.20;;;;;;;11.17;44.54;101607.50;4954031;28;20121;-93
2024/02/14 09:35:44;;;;;;;0.20;0.20;;;;;;;11.06;44.25;101573.38;4985774;28;20046;-88
2024/02/14 09:38:12;;;;;;;0.20;0.20;;;;;;;11.31;44.48;101601.84;4935447;29;20425;-93
2024/02/14 09:40:41;;;;;;;0.20;0.20;;;;;;;11.29;44.22;101571.69;4933015;28;20042;-82
2024/02/14 09:43:13;;;;;;;0.20;0.20;;;;;;;11.44;44.12;101586.69;4952477;28;20506;-89
2024/02/14 09:45:38;;;;;;;0.20;0.20;;;;;;;11.34;44.43;101564.63;4971603;28;20141;-84
2024/02/14 09:48:05;;;;;;;0.20;0.20;;;;;;;11.63;43.77;101590.28;4968279;28;20101;-94
2024/02/14 09:50:32;;;;;;;0.20;0.20;;;;;;;11.54;44.07;101572.50;4983837;28;20504;-87
2024/02/14 09:52:58;;;;;;;0.20;0.20;;;;;;;11.48;42.92;101567.53;4947673;28;20425;-84
2024/02/14 09:55:24;;;;;;;0.20;0.20;;;;;;;11.41;43.64;101568.69;4966856;28;20022;-90
2024/02/14 09:57:49;;;;;;;0.20;0.20;;;;;;;11.57;43.04;101572.38;4969958;28;20452;-93
2024/02/14 10:00:15;;;;;;;0.20;0.20;;;;;;;11.77;43.52;101569.84;4951566;28;20129;-88
2024/02/14 10:02:41;;;;;;;0.15;0.15;;;;;;;11.82;42.12;101561.94;4983478;28;20042;-91
2024/02/14 10:05:07;;;;;;;0.20;0.20;;;;;;;12.04;42.47;101577.50;4949986;28;20096;-90
2024/02/14 10:07:42;;;;;;;0.20;0.20;;;;;;;12.04;41.87;101562.78;4969447;28;20426;-91
2024/02/14 10:10:08;;;;;;;0.20;0.20;;;;;;;12.02;43.05;101540.41;4968934;28;20033;-86
2024/02/14 10:12:34;;;;;;;0.20;0.20;;;;;;;12.23;43.07;101562.88;4962094;28;20027;-84
2024/02/14 10:15:01;;;;;;;0.20;0.20;;;;;;;12.27;41.05;101555.78;4952381;28;20051;-90
2024/02/14 10:17:26;;;;;;;0.20;0.20;;;;;;;12.06;41.35;101565.31;4951191;28;20082;-91
2024/02/14 10:19:59;;;;;;;0.20;0.20;;;;;;;12.26;41.76;101542.00;4968207;28;20560;-85
2024/02/14 10:22:25;;;;;;;0.20;0.20;;;;;;;12.41;40.70;101555.25;4965130;28;20023;-86
2024/02/14 10:24:51;;;;;;;0.20;0.20;;;;;;;12.50;40.99;101554.88;4964358;28;20042;-88
2024/02/14 10:27:17;;;;;;;0.20;0.20;;;;;;;12.58;40.42;101547.56;4963069;28;20077;-84
2024/02/14 10:29:44;;;;;;;0.20;0.20;;;;;;;12.42;40.14;101546.56;4969803;28;20489;-90
2024/02/14 10:32:09;;;;;;;0.20;0.20;;;;;;;12.38;40.69;101529.41;4937056;28;20042;-87
2024/02/14 10:34:35;;;;;;;0.20;0.20;;;;;;;12.41;40.33;101524.94;4952982;28;20027;-90
2024/02/14 10:37:00;;;;;;;0.20;0.20;;;;;;;12.62;39.63;101539.59;4986343;28;20026;-90
2024/02/14 10:39:26;;;;;;;0.20;0.20;;;;;;;12.58;40.10;101544.97;4969373;28;20046;-87
2024/02/14 10:41:52;;;;;;;0.20;0.20;;;;;;;12.58;39.41;101535.44;4964787;28;20117;-83
2024/02/14 10:44:18;;;;;;;0.20;0.20;;;;;;;12.76;39.63;101546.78;4969094;28;20074;-93
2024/02/14 10:46:44;;;;;;;0.20;0.20;;;;;;;12.79;38.85;101541.47;4986722;28;20046;-90
2024/02/14 10:49:10;;;;;;;0.20;0.20;;;;;;;12.78;38.51;101549.31;4956733;28;20035;-91
2024/02/14 10:51:36;;;;;;;0.20;0.20;;;;;;;12.65;39.26;101538.63;4970383;28;20028;-86
2024/02/14 10:54:05;;;;;;;0.20;0.20;;;;;;;12.78;39.13;101545.00;4952174;28;20062;-88
2024/02/14 10:56:32;;;;;;;0.20;0.20;;;;;;;12.43;38.21;101511.91;4954333;28;20501;-86
2024/02/14 10:59:01;;;;;;;0.20;0.20;;;;;;;12.75;39.09;101539.06;4988243;28;20054;-93
2024/02/14 11:01:30;;;;;;;0.20;0.20;;;;;;;12.74;38.39;101533.03;4954493;29;20031;-95
2024/02/14 11:03:58;;;;;;;0.20;0.20;;;;;;;12.74;38.00;101548.59;4964365;28;20533;-90
2024/02/14 11:06:24;;;;;;;0.20;0.20;;;;;;;12.71;39.05;101540.97;4969888;28;20425;-86
2024/02/14 11:09:01;;;;;;;0.20;0.20;;;;;;;12.77;38.29;101535.50;4967974;28;20033;-87
2024/02/14 11:11:33;;;;;;;0.20;0.20;;;;;;;12.67;38.95;101526.41;4986397;28;20038;-85
2024/02/14 11:13:58;;;;;;;0.20;0.20;;;;;;;12.62;37.94;101526.63;4972790;28;20034;-91
2024/02/14 11:16:28;;;;;;;0.20;0.20;;;;;;;12.78;37.58;101547.59;4954187;28;20043;-84
2024/02/14 11:19:05;;;;;;;0.20;0.20;;;;;;;12.77;37.71;101542.44;4973879;28;20022;-88
2024/02/14 11:21:31;;;;;;;0.20;0.20;;;;;;;12.78;37.27;101541.53;4957347;28;20085;-89
2024/02/14 11:23:59;;;;;;;0.20;0.20;;;;;;;12.89;37.01;101542.75;4987741;28;20034;-85
2024/02/14 11:26:24;;;;;;;0.20;0.20;;;;;;;12.84;36.87;101534.31;4969209;28;20522;-85